sensor_id;sensor_type;location;lat;lon;timestamp;P1;durP1;ratioP1;P2;durP2;ratioP2
58528;SDS011;44322;52.968;5.816;2023-11-21T00:01:17;22.10;;;8.15;;
58528;SDS011;44322;52.968;5.816;2023-11-21T00:03:43;20.05;;;7.35;;
58528;SDS011;44322;52.968;5.816;2023-11-21T00:06:09;21.65;;;8.00;;
58528;SDS011;44322;52.968;5.816;2023-11-21T00:08:35;25.30;;;7.65;;
58528;SDS011;44322;52.968;5.816;2023-11-21T00:11:01;18.73;;;6.88;;
58528;SDS011;44322;52.968;5.816;2023-11-21T00:13:31;19.25;;;7.47;;
58528;SDS011;44322;52.968;5.816;2023-11-21T00:15:57;20.88;;;8.05;;
58528;SDS011;44322;52.968;5.816;2023-11-21T00:18:23;23.30;;;6.90;;
58528;SDS011;44322;52.968;5.816;2023-11-21T00:20:49;18.50;;;7.13;;
58528;SDS011;44322;52.968;5.816;2023-11-21T00:23:14;21.45;;;6.80;;
58528;SDS011;44322;52.968;5.816;2023-11-21T00:25:40;19.38;;;7.00;;
58528;SDS011;44322;52.968;5.816;2023-11-21T00:28:05;17.98;;;6.35;;
58528;SDS011;44322;52.968;5.816;2023-11-21T00:30:31;16.88;;;6.60;;
58528;SDS011;44322;52.968;5.816;2023-11-21T00:32:57;24.42;;;7.53;;
58528;SDS011;44322;52.968;5.816;2023-11-21T00:35:22;23.75;;;7.22;;
58528;SDS011;44322;52.968;5.816;2023-11-21T00:37:48;19.15;;;6.85;;
58528;SDS011;44322;52.968;5.816;2023-11-21T00:40:15;20.27;;;6.57;;
58528;SDS011;44322;52.968;5.816;2023-11-21T00:42:41;22.55;;;6.63;;
58528;SDS011;44322;52.968;5.816;2023-11-21T00:45:07;22.60;;;7.35;;
58528;SDS011;44322;52.968;5.816;2023-11-21T00:47:33;15.38;;;6.85;;
58528;SDS011;44322;52.968;5.816;2023-11-21T00:50:00;19.77;;;7.20;;
58528;SDS011;44322;52.968;5.816;2023-11-21T00:52:25;25.00;;;6.85;;
58528;SDS011;44322;52.968;5.816;2023-11-21T00:54:51;20.02;;;7.15;;
58528;SDS011;44322;52.968;5.816;2023-11-21T00:57:16;22.52;;;7.55;;
58528;SDS011;44322;52.968;5.816;2023-11-21T00:59:42;17.52;;;7.13;;
58528;SDS011;44322;52.968;5.816;2023-11-21T01:02:08;19.83;;;6.82;;
58528;SDS011;44322;52.968;5.816;2023-11-21T01:04:35;16.95;;;6.47;;
58528;SDS011;44322;52.968;5.816;2023-11-21T01:07:01;19.92;;;7.10;;
58528;SDS011;44322;52.968;5.816;2023-11-21T01:09:27;16.58;;;6.68;;
58528;SDS011;44322;52.968;5.816;2023-11-21T01:11:53;20.23;;;6.82;;
58528;SDS011;44322;52.968;5.816;2023-11-21T01:14:19;19.63;;;6.88;;
58528;SDS011;44322;52.968;5.816;2023-11-21T01:16:44;14.73;;;6.07;;
58528;SDS011;44322;52.968;5.816;2023-11-21T01:19:10;19.25;;;6.80;;
58528;SDS011;44322;52.968;5.816;2023-11-21T01:21:35;19.23;;;6.90;;
58528;SDS011;44322;52.968;5.816;2023-11-21T01:24:02;13.85;;;6.30;;
58528;SDS011;44322;52.968;5.816;2023-11-21T01:26:28;19.33;;;7.20;;
58528;SDS011;44322;52.968;5.816;2023-11-21T01:28:54;14.35;;;6.85;;
58528;SDS011;44322;52.968;5.816;2023-11-21T01:31:20;15.68;;;6.80;;
58528;SDS011;44322;52.968;5.816;2023-11-21T01:33:46;17.25;;;7.10;;
58528;SDS011;44322;52.968;5.816;2023-11-21T01:36:11;14.68;;;6.70;;
58528;SDS011;44322;52.968;5.816;2023-11-21T01:38:37;13.48;;;6.63;;
58528;SDS011;44322;52.968;5.816;2023-11-21T01:41:03;13.07;;;5.95;;
58528;SDS011;44322;52.968;5.816;2023-11-21T01:43:30;10.95;;;5.80;;
58528;SDS011;44322;52.968;5.816;2023-11-21T01:45:57;15.25;;;6.78;;
58528;SDS011;44322;52.968;5.816;2023-11-21T01:48:24;12.50;;;5.68;;
58528;SDS011;44322;52.968;5.816;2023-11-21T01:50:50;13.25;;;5.60;;
58528;SDS011;44322;52.968;5.816;2023-11-21T01:53:16;12.35;;;5.45;;
58528;SDS011;44322;52.968;5.816;2023-11-21T01:55:41;15.20;;;6.60;;
58528;SDS011;44322;52.968;5.816;2023-11-21T01:58:09;13.13;;;5.90;;
58528;SDS011;44322;52.968;5.816;2023-11-21T02:00:35;14.23;;;6.00;;
58528;SDS011;44322;52.968;5.816;2023-11-21T02:03:00;15.05;;;5.78;;
58528;SDS011;44322;52.968;5.816;2023-11-21T02:05:26;13.20;;;5.45;;
58528;SDS011;44322;52.968;5.816;2023-11-21T02:07:52;9.65;;;5.32;;
58528;SDS011;44322;52.968;5.816;2023-11-21T02:10:18;10.55;;;5.80;;
58528;SDS011;44322;52.968;5.816;2023-11-21T02:12:48;12.55;;;5.25;;
58528;SDS011;44322;52.968;5.816;2023-11-21T02:15:15;12.20;;;5.55;;
58528;SDS011;44322;52.968;5.816;2023-11-21T02:17:48;15.35;;;5.53;;
58528;SDS011;44322;52.968;5.816;2023-11-21T02:20:19;9.55;;;5.05;;
58528;SDS011;44322;52.968;5.816;2023-11-21T02:22:49;7.78;;;4.88;;
58528;SDS011;44322;52.968;5.816;2023-11-21T02:25:21;10.27;;;4.65;;
58528;SDS011;44322;52.968;5.816;2023-11-21T02:27:46;10.20;;;4.43;;
58528;SDS011;44322;52.968;5.816;2023-11-21T02:30:14;8.13;;;4.68;;
58528;SDS011;44322;52.968;5.816;2023-11-21T02:32:41;10.20;;;4.57;;
58528;SDS011;44322;52.968;5.816;2023-11-21T02:35:08;8.63;;;5.18;;
58528;SDS011;44322;52.968;5.816;2023-11-21T02:37:34;11.70;;;5.20;;
58528;SDS011;44322;52.968;5.816;2023-11-21T02:40:01;8.95;;;4.97;;
58528;SDS011;44322;52.968;5.816;2023-11-21T02:42:29;10.15;;;5.32;;
58528;SDS011;44322;52.968;5.816;2023-11-21T02:44:55;9.65;;;5.63;;
58528;SDS011;44322;52.968;5.816;2023-11-21T02:47:22;16.08;;;6.80;;
58528;SDS011;44322;52.968;5.816;2023-11-21T02:49:48;10.93;;;7.55;;
58528;SDS011;44322;52.968;5.816;2023-11-21T02:52:14;16.55;;;8.57;;
58528;SDS011;44322;52.968;5.816;2023-11-21T02:54:39;17.38;;;8.18;;
58528;SDS011;44322;52.968;5.816;2023-11-21T02:57:05;15.38;;;8.30;;
58528;SDS011;44322;52.968;5.816;2023-11-21T02:59:31;17.33;;;8.27;;
58528;SDS011;44322;52.968;5.816;2023-11-21T03:01:56;13.70;;;8.10;;
58528;SDS011;44322;52.968;5.816;2023-11-21T03:04:23;14.60;;;8.73;;
58528;SDS011;44322;52.968;5.816;2023-11-21T03:06:48;16.70;;;8.52;;
58528;SDS011;44322;52.968;5.816;2023-11-21T03:09:14;18.30;;;9.18;;
58528;SDS011;44322;52.968;5.816;2023-11-21T03:11:41;16.50;;;8.57;;
58528;SDS011;44322;52.968;5.816;2023-11-21T03:14:07;17.92;;;9.65;;
58528;SDS011;44322;52.968;5.816;2023-11-21T03:16:32;17.88;;;9.05;;
58528;SDS011;44322;52.968;5.816;2023-11-21T03:18:58;15.82;;;8.90;;
58528;SDS011;44322;52.968;5.816;2023-11-21T03:21:24;17.58;;;8.52;;
58528;SDS011;44322;52.968;5.816;2023-11-21T03:23:50;14.98;;;8.90;;
58528;SDS011;44322;52.968;5.816;2023-11-21T03:26:16;19.67;;;8.93;;
58528;SDS011;44322;52.968;5.816;2023-11-21T03:28:42;21.25;;;9.40;;
58528;SDS011;44322;52.968;5.816;2023-11-21T03:31:07;22.20;;;8.90;;
58528;SDS011;44322;52.968;5.816;2023-11-21T03:33:34;22.05;;;9.05;;
58528;SDS011;44322;52.968;5.816;2023-11-21T03:36:01;19.38;;;8.88;;
58528;SDS011;44322;52.968;5.816;2023-11-21T03:38:26;18.50;;;8.13;;
58528;SDS011;44322;52.968;5.816;2023-11-21T03:40:52;19.70;;;8.57;;
58528;SDS011;44322;52.968;5.816;2023-11-21T03:43:18;16.88;;;8.43;;
58528;SDS011;44322;52.968;5.816;2023-11-21T03:45:44;18.17;;;7.85;;
58528;SDS011;44322;52.968;5.816;2023-11-21T03:48:09;24.35;;;8.27;;
58528;SDS011;44322;52.968;5.816;2023-11-21T03:50:37;20.30;;;7.22;;
58528;SDS011;44322;52.968;5.816;2023-11-21T03:53:05;19.00;;;8.38;;
58528;SDS011;44322;52.968;5.816;2023-11-21T03:55:30;16.85;;;7.50;;
58528;SDS011;44322;52.968;5.816;2023-11-21T03:57:57;17.02;;;8.10;;
58528;SDS011;44322;52.968;5.816;2023-11-21T04:00:23;17.02;;;7.38;;
58528;SDS011;44322;52.968;5.816;2023-11-21T04:02:49;20.15;;;7.13;;
58528;SDS011;44322;52.968;5.816;2023-11-21T04:05:17;15.15;;;6.65;;
58528;SDS011;44322;52.968;5.816;2023-11-21T04:07:42;14.73;;;6.30;;
58528;SDS011;44322;52.968;5.816;2023-11-21T04:10:08;12.63;;;6.03;;
58528;SDS011;44322;52.968;5.816;2023-11-21T04:12:35;10.52;;;5.40;;
58528;SDS011;44322;52.968;5.816;2023-11-21T04:15:01;9.43;;;5.55;;
58528;SDS011;44322;52.968;5.816;2023-11-21T04:17:27;12.32;;;6.00;;
58528;SDS011;44322;52.968;5.816;2023-11-21T04:19:52;10.15;;;5.25;;
58528;SDS011;44322;52.968;5.816;2023-11-21T04:22:18;12.40;;;5.75;;
58528;SDS011;44322;52.968;5.816;2023-11-21T04:24:44;12.48;;;6.32;;
58528;SDS011;44322;52.968;5.816;2023-11-21T04:27:09;13.30;;;6.22;;
58528;SDS011;44322;52.968;5.816;2023-11-21T04:29:35;10.63;;;6.45;;
58528;SDS011;44322;52.968;5.816;2023-11-21T04:32:01;13.63;;;6.50;;
58528;SDS011;44322;52.968;5.816;2023-11-21T04:34:28;11.25;;;6.40;;
58528;SDS011;44322;52.968;5.816;2023-11-21T04:39:21;13.25;;;6.60;;
58528;SDS011;44322;52.968;5.816;2023-11-21T04:41:47;11.98;;;6.43;;
58528;SDS011;44322;52.968;5.816;2023-11-21T04:44:13;12.70;;;6.93;;
58528;SDS011;44322;52.968;5.816;2023-11-21T04:46:38;14.07;;;7.40;;
58528;SDS011;44322;52.968;5.816;2023-11-21T04:49:04;14.07;;;7.07;;
58528;SDS011;44322;52.968;5.816;2023-11-21T04:51:29;13.10;;;7.07;;
58528;SDS011;44322;52.968;5.816;2023-11-21T04:53:57;14.23;;;7.35;;
58528;SDS011;44322;52.968;5.816;2023-11-21T04:56:23;13.90;;;7.35;;
58528;SDS011;44322;52.968;5.816;2023-11-21T04:58:48;12.55;;;7.55;;
58528;SDS011;44322;52.968;5.816;2023-11-21T05:01:14;18.27;;;8.45;;
58528;SDS011;44322;52.968;5.816;2023-11-21T05:03:39;14.15;;;7.82;;
58528;SDS011;44322;52.968;5.816;2023-11-21T05:06:05;13.82;;;8.00;;
58528;SDS011;44322;52.968;5.816;2023-11-21T05:08:31;15.10;;;8.15;;
58528;SDS011;44322;52.968;5.816;2023-11-21T05:10:57;12.65;;;7.65;;
58528;SDS011;44322;52.968;5.816;2023-11-21T05:13:22;14.70;;;8.05;;
58528;SDS011;44322;52.968;5.816;2023-11-21T05:15:53;16.33;;;8.25;;
58528;SDS011;44322;52.968;5.816;2023-11-21T05:18:25;16.38;;;7.43;;
58528;SDS011;44322;52.968;5.816;2023-11-21T05:20:55;13.05;;;7.53;;
58528;SDS011;44322;52.968;5.816;2023-11-21T05:23:21;12.68;;;7.57;;
58528;SDS011;44322;52.968;5.816;2023-11-21T05:25:47;12.75;;;7.43;;
58528;SDS011;44322;52.968;5.816;2023-11-21T05:28:13;11.75;;;7.13;;
58528;SDS011;44322;52.968;5.816;2023-11-21T05:30:39;12.68;;;7.13;;
58528;SDS011;44322;52.968;5.816;2023-11-21T05:33:04;14.18;;;6.90;;
58528;SDS011;44322;52.968;5.816;2023-11-21T05:35:30;11.57;;;7.05;;
58528;SDS011;44322;52.968;5.816;2023-11-21T05:37:56;13.10;;;7.38;;
58528;SDS011;44322;52.968;5.816;2023-11-21T05:40:22;13.77;;;7.53;;
58528;SDS011;44322;52.968;5.816;2023-11-21T05:42:47;16.13;;;8.18;;
58528;SDS011;44322;52.968;5.816;2023-11-21T05:45:13;18.48;;;8.90;;
58528;SDS011;44322;52.968;5.816;2023-11-21T05:47:41;20.95;;;10.13;;
58528;SDS011;44322;52.968;5.816;2023-11-21T05:50:08;22.85;;;10.15;;
58528;SDS011;44322;52.968;5.816;2023-11-21T05:52:37;20.73;;;10.82;;
58528;SDS011;44322;52.968;5.816;2023-11-21T05:55:03;19.35;;;10.98;;
58528;SDS011;44322;52.968;5.816;2023-11-21T05:57:35;21.50;;;11.25;;
58528;SDS011;44322;52.968;5.816;2023-11-21T06:00:05;24.00;;;12.43;;
58528;SDS011;44322;52.968;5.816;2023-11-21T06:02:51;28.38;;;12.88;;
58528;SDS011;44322;52.968;5.816;2023-11-21T06:05:18;25.23;;;12.82;;
58528;SDS011;44322;52.968;5.816;2023-11-21T06:07:45;30.48;;;13.27;;
58528;SDS011;44322;52.968;5.816;2023-11-21T06:10:11;24.95;;;12.32;;
58528;SDS011;44322;52.968;5.816;2023-11-21T06:12:39;25.52;;;12.27;;
58528;SDS011;44322;52.968;5.816;2023-11-21T06:15:08;24.70;;;11.95;;
58528;SDS011;44322;52.968;5.816;2023-11-21T06:17:34;21.33;;;11.07;;
58528;SDS011;44322;52.968;5.816;2023-11-21T06:20:05;23.13;;;11.40;;
58528;SDS011;44322;52.968;5.816;2023-11-21T06:22:40;22.35;;;10.75;;
58528;SDS011;44322;52.968;5.816;2023-11-21T06:25:07;21.20;;;11.57;;
58528;SDS011;44322;52.968;5.816;2023-11-21T06:27:41;21.70;;;11.85;;
58528;SDS011;44322;52.968;5.816;2023-11-21T06:30:08;23.65;;;11.15;;
58528;SDS011;44322;52.968;5.816;2023-11-21T06:32:35;22.08;;;11.77;;
58528;SDS011;44322;52.968;5.816;2023-11-21T06:35:01;24.63;;;12.57;;
58528;SDS011;44322;52.968;5.816;2023-11-21T06:37:29;22.75;;;12.57;;
58528;SDS011;44322;52.968;5.816;2023-11-21T06:39:55;24.33;;;12.25;;
58528;SDS011;44322;52.968;5.816;2023-11-21T06:42:23;22.83;;;13.23;;
58528;SDS011;44322;52.968;5.816;2023-11-21T06:44:49;26.17;;;12.88;;
58528;SDS011;44322;52.968;5.816;2023-11-21T06:47:19;24.80;;;13.10;;
58528;SDS011;44322;52.968;5.816;2023-11-21T06:49:50;27.20;;;13.13;;
58528;SDS011;44322;52.968;5.816;2023-11-21T06:52:16;27.10;;;14.07;;
58528;SDS011;44322;52.968;5.816;2023-11-21T06:54:43;29.45;;;13.75;;
58528;SDS011;44322;52.968;5.816;2023-11-21T06:57:09;28.73;;;14.30;;
58528;SDS011;44322;52.968;5.816;2023-11-21T06:59:34;26.73;;;13.75;;
58528;SDS011;44322;52.968;5.816;2023-11-21T07:02:00;27.60;;;13.95;;
58528;SDS011;44322;52.968;5.816;2023-11-21T07:04:26;27.08;;;13.55;;
58528;SDS011;44322;52.968;5.816;2023-11-21T07:06:52;26.20;;;13.48;;
58528;SDS011;44322;52.968;5.816;2023-11-21T07:09:18;25.40;;;13.63;;
58528;SDS011;44322;52.968;5.816;2023-11-21T07:11:47;25.88;;;13.95;;
58528;SDS011;44322;52.968;5.816;2023-11-21T07:14:14;26.45;;;14.15;;
58528;SDS011;44322;52.968;5.816;2023-11-21T07:16:40;27.88;;;14.02;;
58528;SDS011;44322;52.968;5.816;2023-11-21T07:19:06;26.58;;;13.13;;
58528;SDS011;44322;52.968;5.816;2023-11-21T07:21:32;25.77;;;14.07;;
58528;SDS011;44322;52.968;5.816;2023-11-21T07:24:02;26.80;;;14.27;;
58528;SDS011;44322;52.968;5.816;2023-11-21T07:26:29;27.33;;;13.93;;
58528;SDS011;44322;52.968;5.816;2023-11-21T07:28:55;27.23;;;14.70;;
58528;SDS011;44322;52.968;5.816;2023-11-21T07:31:23;29.55;;;15.02;;
58528;SDS011;44322;52.968;5.816;2023-11-21T07:33:49;28.63;;;14.40;;
58528;SDS011;44322;52.968;5.816;2023-11-21T07:36:16;31.88;;;15.25;;
58528;SDS011;44322;52.968;5.816;2023-11-21T07:38:46;26.17;;;15.05;;
58528;SDS011;44322;52.968;5.816;2023-11-21T07:41:12;28.63;;;14.85;;
58528;SDS011;44322;52.968;5.816;2023-11-21T07:43:41;29.58;;;15.43;;
58528;SDS011;44322;52.968;5.816;2023-11-21T07:46:07;26.08;;;14.10;;
58528;SDS011;44322;52.968;5.816;2023-11-21T07:48:33;27.95;;;15.30;;
58528;SDS011;44322;52.968;5.816;2023-11-21T07:50:59;26.15;;;14.40;;
58528;SDS011;44322;52.968;5.816;2023-11-21T07:53:26;26.65;;;14.75;;
58528;SDS011;44322;52.968;5.816;2023-11-21T07:55:54;25.77;;;13.75;;
58528;SDS011;44322;52.968;5.816;2023-11-21T07:58:20;27.08;;;14.20;;
58528;SDS011;44322;52.968;5.816;2023-11-21T08:00:46;28.52;;;14.35;;
58528;SDS011;44322;52.968;5.816;2023-11-21T08:03:15;27.60;;;13.50;;
58528;SDS011;44322;52.968;5.816;2023-11-21T08:05:43;27.02;;;13.48;;
58528;SDS011;44322;52.968;5.816;2023-11-21T08:08:09;23.35;;;12.77;;
58528;SDS011;44322;52.968;5.816;2023-11-21T08:10:35;26.10;;;12.95;;
58528;SDS011;44322;52.968;5.816;2023-11-21T08:13:01;29.10;;;13.65;;
58528;SDS011;44322;52.968;5.816;2023-11-21T08:15:35;32.97;;;15.23;;
58528;SDS011;44322;52.968;5.816;2023-11-21T08:18:03;30.45;;;15.13;;
58528;SDS011;44322;52.968;5.816;2023-11-21T08:20:31;40.45;;;18.38;;
58528;SDS011;44322;52.968;5.816;2023-11-21T08:22:57;44.88;;;19.48;;
58528;SDS011;44322;52.968;5.816;2023-11-21T08:25:22;48.08;;;21.33;;
58528;SDS011;44322;52.968;5.816;2023-11-21T08:27:48;42.97;;;19.45;;
58528;SDS011;44322;52.968;5.816;2023-11-21T08:30:14;45.20;;;19.65;;
58528;SDS011;44322;52.968;5.816;2023-11-21T08:32:42;40.53;;;19.43;;
58528;SDS011;44322;52.968;5.816;2023-11-21T08:35:10;36.20;;;18.15;;
58528;SDS011;44322;52.968;5.816;2023-11-21T08:37:37;38.50;;;18.52;;
58528;SDS011;44322;52.968;5.816;2023-11-21T08:40:06;35.70;;;19.02;;
58528;SDS011;44322;52.968;5.816;2023-11-21T08:42:40;33.33;;;19.50;;
58528;SDS011;44322;52.968;5.816;2023-11-21T08:46:33;35.08;;;18.83;;
58528;SDS011;44322;52.968;5.816;2023-11-21T08:49:02;31.85;;;17.95;;
58528;SDS011;44322;52.968;5.816;2023-11-21T08:51:28;31.25;;;17.90;;
58528;SDS011;44322;52.968;5.816;2023-11-21T08:53:54;28.08;;;16.88;;
58528;SDS011;44322;52.968;5.816;2023-11-21T08:56:20;29.27;;;17.63;;
58528;SDS011;44322;52.968;5.816;2023-11-21T08:58:48;28.02;;;16.90;;
58528;SDS011;44322;52.968;5.816;2023-11-21T09:01:19;29.25;;;16.85;;
58528;SDS011;44322;52.968;5.816;2023-11-21T09:06:11;30.25;;;18.15;;
58528;SDS011;44322;52.968;5.816;2023-11-21T09:08:37;31.00;;;17.60;;
58528;SDS011;44322;52.968;5.816;2023-11-21T09:11:03;31.38;;;19.15;;
58528;SDS011;44322;52.968;5.816;2023-11-21T09:13:28;31.55;;;18.92;;
58528;SDS011;44322;52.968;5.816;2023-11-21T09:15:55;34.58;;;20.27;;
58528;SDS011;44322;52.968;5.816;2023-11-21T09:18:20;35.22;;;21.13;;
58528;SDS011;44322;52.968;5.816;2023-11-21T09:20:46;34.60;;;21.27;;
58528;SDS011;44322;52.968;5.816;2023-11-21T09:23:12;32.13;;;19.10;;
58528;SDS011;44322;52.968;5.816;2023-11-21T09:25:37;34.13;;;20.52;;
58528;SDS011;44322;52.968;5.816;2023-11-21T09:28:03;33.78;;;20.10;;
58528;SDS011;44322;52.968;5.816;2023-11-21T09:30:33;35.15;;;20.75;;
58528;SDS011;44322;52.968;5.816;2023-11-21T09:33:00;36.75;;;21.20;;
58528;SDS011;44322;52.968;5.816;2023-11-21T09:35:27;33.05;;;20.55;;
58528;SDS011;44322;52.968;5.816;2023-11-21T09:37:53;32.97;;;19.70;;
58528;SDS011;44322;52.968;5.816;2023-11-21T09:40:21;32.35;;;19.25;;
58528;SDS011;44322;52.968;5.816;2023-11-21T09:45:26;26.23;;;16.95;;
58528;SDS011;44322;52.968;5.816;2023-11-21T09:47:54;25.40;;;16.75;;
58528;SDS011;44322;52.968;5.816;2023-11-21T09:50:24;26.35;;;16.40;;
58528;SDS011;44322;52.968;5.816;2023-11-21T09:55:26;25.83;;;16.80;;
58528;SDS011;44322;52.968;5.816;2023-11-21T10:00:22;30.50;;;17.63;;
58528;SDS011;44322;52.968;5.816;2023-11-21T10:02:49;26.73;;;18.05;;
58528;SDS011;44322;52.968;5.816;2023-11-21T10:05:15;29.05;;;18.20;;
58528;SDS011;44322;52.968;5.816;2023-11-21T10:07:43;28.83;;;17.50;;
58528;SDS011;44322;52.968;5.816;2023-11-21T10:10:10;26.95;;;17.35;;
58528;SDS011;44322;52.968;5.816;2023-11-21T10:12:35;24.95;;;16.38;;
58528;SDS011;44322;52.968;5.816;2023-11-21T10:15:03;26.42;;;17.63;;
58528;SDS011;44322;52.968;5.816;2023-11-21T10:17:33;23.67;;;16.38;;
58528;SDS011;44322;52.968;5.816;2023-11-21T10:20:08;24.60;;;16.08;;
58528;SDS011;44322;52.968;5.816;2023-11-21T10:22:38;25.13;;;16.77;;
58528;SDS011;44322;52.968;5.816;2023-11-21T10:25:08;24.45;;;16.35;;
58528;SDS011;44322;52.968;5.816;2023-11-21T10:27:34;24.48;;;17.13;;
58528;SDS011;44322;52.968;5.816;2023-11-21T10:30:03;24.08;;;16.67;;
58528;SDS011;44322;52.968;5.816;2023-11-21T10:32:29;25.58;;;17.05;;
58528;SDS011;44322;52.968;5.816;2023-11-21T10:34:58;22.20;;;15.40;;
58528;SDS011;44322;52.968;5.816;2023-11-21T10:37:34;20.77;;;15.10;;
58528;SDS011;44322;52.968;5.816;2023-11-21T10:39:59;20.98;;;15.38;;
58528;SDS011;44322;52.968;5.816;2023-11-21T10:42:25;20.17;;;14.35;;
58528;SDS011;44322;52.968;5.816;2023-11-21T10:44:52;17.70;;;13.38;;
58528;SDS011;44322;52.968;5.816;2023-11-21T10:47:19;18.10;;;13.50;;
58528;SDS011;44322;52.968;5.816;2023-11-21T10:49:47;19.08;;;13.98;;
58528;SDS011;44322;52.968;5.816;2023-11-21T10:52:14;19.58;;;14.95;;
58528;SDS011;44322;52.968;5.816;2023-11-21T10:54:45;20.15;;;14.52;;
58528;SDS011;44322;52.968;5.816;2023-11-21T10:57:11;16.42;;;13.38;;
58528;SDS011;44322;52.968;5.816;2023-11-21T10:59:40;15.50;;;13.20;;
58528;SDS011;44322;52.968;5.816;2023-11-21T11:02:14;14.85;;;12.50;;
58528;SDS011;44322;52.968;5.816;2023-11-21T11:04:47;14.80;;;12.43;;
58528;SDS011;44322;52.968;5.816;2023-11-21T11:07:14;13.02;;;11.60;;
58528;SDS011;44322;52.968;5.816;2023-11-21T11:09:41;14.88;;;11.70;;
58528;SDS011;44322;52.968;5.816;2023-11-21T11:12:07;14.30;;;11.63;;
58528;SDS011;44322;52.968;5.816;2023-11-21T11:14:35;14.02;;;12.23;;
58528;SDS011;44322;52.968;5.816;2023-11-21T11:17:01;14.38;;;12.43;;
58528;SDS011;44322;52.968;5.816;2023-11-21T11:19:27;13.90;;;11.43;;
58528;SDS011;44322;52.968;5.816;2023-11-21T11:35:27;17.75;;;15.02;;
58528;SDS011;44322;52.968;5.816;2023-11-21T11:37:59;16.30;;;14.38;;
58528;SDS011;44322;52.968;5.816;2023-11-21T11:40:38;18.85;;;15.77;;
58528;SDS011;44322;52.968;5.816;2023-11-21T11:43:07;22.33;;;17.35;;
58528;SDS011;44322;52.968;5.816;2023-11-21T11:45:33;23.60;;;18.73;;
58528;SDS011;44322;52.968;5.816;2023-11-21T11:48:01;23.95;;;18.52;;
58528;SDS011;44322;52.968;5.816;2023-11-21T11:50:27;21.75;;;16.98;;
58528;SDS011;44322;52.968;5.816;2023-11-21T11:52:53;18.98;;;16.10;;
58528;SDS011;44322;52.968;5.816;2023-11-21T11:55:23;19.48;;;15.63;;
58528;SDS011;44322;52.968;5.816;2023-11-21T11:57:53;17.17;;;13.93;;
58528;SDS011;44322;52.968;5.816;2023-11-21T12:02:53;19.10;;;15.07;;
58528;SDS011;44322;52.968;5.816;2023-11-21T12:05:20;16.35;;;14.45;;
58528;SDS011;44322;52.968;5.816;2023-11-21T12:07:53;16.65;;;14.32;;
58528;SDS011;44322;52.968;5.816;2023-11-21T12:10:24;16.83;;;14.23;;
58528;SDS011;44322;52.968;5.816;2023-11-21T12:12:51;15.52;;;13.55;;
58528;SDS011;44322;52.968;5.816;2023-11-21T12:15:18;17.52;;;14.35;;
58528;SDS011;44322;52.968;5.816;2023-11-21T12:17:45;17.00;;;13.95;;
58528;SDS011;44322;52.968;5.816;2023-11-21T12:20:14;16.30;;;14.57;;
58528;SDS011;44322;52.968;5.816;2023-11-21T12:22:52;16.35;;;14.65;;
58528;SDS011;44322;52.968;5.816;2023-11-21T12:25:19;16.65;;;14.60;;
58528;SDS011;44322;52.968;5.816;2023-11-21T12:27:47;15.63;;;13.90;;
58528;SDS011;44322;52.968;5.816;2023-11-21T12:32:41;14.13;;;11.82;;
58528;SDS011;44322;52.968;5.816;2023-11-21T12:35:08;13.10;;;11.35;;
58528;SDS011;44322;52.968;5.816;2023-11-21T12:37:35;13.02;;;11.63;;
58528;SDS011;44322;52.968;5.816;2023-11-21T12:40:03;12.88;;;11.52;;
58528;SDS011;44322;52.968;5.816;2023-11-21T12:42:31;13.70;;;11.32;;
58528;SDS011;44322;52.968;5.816;2023-11-21T12:45:18;11.88;;;9.57;;
58528;SDS011;44322;52.968;5.816;2023-11-21T12:47:57;11.73;;;9.45;;
58528;SDS011;44322;52.968;5.816;2023-11-21T12:50:26;10.80;;;9.00;;
58528;SDS011;44322;52.968;5.816;2023-11-21T12:53:00;10.82;;;9.02;;
58528;SDS011;44322;52.968;5.816;2023-11-21T12:55:29;11.20;;;9.23;;
58528;SDS011;44322;52.968;5.816;2023-11-21T13:00:28;11.52;;;9.48;;
58528;SDS011;44322;52.968;5.816;2023-11-21T13:02:57;9.65;;;8.07;;
58528;SDS011;44322;52.968;5.816;2023-11-21T13:05:30;9.30;;;7.78;;
58528;SDS011;44322;52.968;5.816;2023-11-21T13:07:58;9.95;;;8.48;;
58528;SDS011;44322;52.968;5.816;2023-11-21T13:10:28;9.75;;;8.25;;
58528;SDS011;44322;52.968;5.816;2023-11-21T13:12:59;10.98;;;8.77;;
58528;SDS011;44322;52.968;5.816;2023-11-21T13:15:29;8.50;;;7.60;;
58528;SDS011;44322;52.968;5.816;2023-11-21T13:17:57;8.93;;;7.78;;
58528;SDS011;44322;52.968;5.816;2023-11-21T13:20:23;8.63;;;7.15;;
58528;SDS011;44322;52.968;5.816;2023-11-21T13:22:52;8.88;;;7.10;;
58528;SDS011;44322;52.968;5.816;2023-11-21T13:25:30;9.10;;;7.35;;
58528;SDS011;44322;52.968;5.816;2023-11-21T13:27:59;8.93;;;7.53;;
58528;SDS011;44322;52.968;5.816;2023-11-21T13:30:26;8.75;;;7.57;;
58528;SDS011;44322;52.968;5.816;2023-11-21T13:32:52;9.38;;;7.43;;
58528;SDS011;44322;52.968;5.816;2023-11-21T13:35:30;8.50;;;7.20;;
58528;SDS011;44322;52.968;5.816;2023-11-21T13:38:03;9.40;;;7.78;;
58528;SDS011;44322;52.968;5.816;2023-11-21T13:40:30;9.68;;;7.78;;
58528;SDS011;44322;52.968;5.816;2023-11-21T13:42:56;8.77;;;7.75;;
58528;SDS011;44322;52.968;5.816;2023-11-21T13:45:27;9.95;;;8.25;;
58528;SDS011;44322;52.968;5.816;2023-11-21T13:47:55;11.18;;;8.55;;
58528;SDS011;44322;52.968;5.816;2023-11-21T13:50:23;11.15;;;8.10;;
58528;SDS011;44322;52.968;5.816;2023-11-21T13:52:59;11.15;;;8.25;;
58528;SDS011;44322;52.968;5.816;2023-11-21T13:55:29;11.32;;;8.73;;
58528;SDS011;44322;52.968;5.816;2023-11-21T13:57:55;11.05;;;9.25;;
58528;SDS011;44322;52.968;5.816;2023-11-21T14:00:21;10.88;;;9.27;;
58528;SDS011;44322;52.968;5.816;2023-11-21T14:03:05;11.98;;;9.55;;
58528;SDS011;44322;52.968;5.816;2023-11-21T14:05:36;10.55;;;8.77;;
58528;SDS011;44322;52.968;5.816;2023-11-21T14:08:01;10.55;;;8.98;;
58528;SDS011;44322;52.968;5.816;2023-11-21T14:10:31;10.95;;;8.98;;
58528;SDS011;44322;52.968;5.816;2023-11-21T14:13:08;10.50;;;8.57;;
58528;SDS011;44322;52.968;5.816;2023-11-21T14:15:38;12.40;;;9.60;;
58528;SDS011;44322;52.968;5.816;2023-11-21T14:18:09;10.70;;;8.68;;
58528;SDS011;44322;52.968;5.816;2023-11-21T14:20:39;11.68;;;8.95;;
58528;SDS011;44322;52.968;5.816;2023-11-21T14:23:06;10.90;;;8.90;;
58528;SDS011;44322;52.968;5.816;2023-11-21T14:25:32;12.30;;;9.20;;
58528;SDS011;44322;52.968;5.816;2023-11-21T14:27:59;10.75;;;8.95;;
58528;SDS011;44322;52.968;5.816;2023-11-21T14:30:24;11.60;;;8.95;;
58528;SDS011;44322;52.968;5.816;2023-11-21T14:32:51;10.27;;;8.35;;
58528;SDS011;44322;52.968;5.816;2023-11-21T14:35:16;10.15;;;8.40;;
58528;SDS011;44322;52.968;5.816;2023-11-21T14:37:43;10.50;;;8.18;;
58528;SDS011;44322;52.968;5.816;2023-11-21T14:40:09;9.63;;;8.07;;
58528;SDS011;44322;52.968;5.816;2023-11-21T14:42:35;9.80;;;8.23;;
58528;SDS011;44322;52.968;5.816;2023-11-21T14:45:04;10.38;;;8.27;;
58528;SDS011;44322;52.968;5.816;2023-11-21T14:47:32;11.80;;;8.18;;
58528;SDS011;44322;52.968;5.816;2023-11-21T14:50:00;9.23;;;8.00;;
58528;SDS011;44322;52.968;5.816;2023-11-21T14:52:44;10.30;;;8.13;;
58528;SDS011;44322;52.968;5.816;2023-11-21T14:55:20;11.10;;;8.68;;
58528;SDS011;44322;52.968;5.816;2023-11-21T14:58:06;10.23;;;8.65;;
58528;SDS011;44322;52.968;5.816;2023-11-21T15:00:37;9.38;;;8.35;;
58528;SDS011;44322;52.968;5.816;2023-11-21T15:03:09;11.45;;;8.52;;
58528;SDS011;44322;52.968;5.816;2023-11-21T15:05:53;12.98;;;9.13;;
58528;SDS011;44322;52.968;5.816;2023-11-21T15:08:19;11.43;;;8.68;;